sensor_id;sensor_type;location;lat;lon;timestamp;P1;durP1;ratioP1;P2;durP2;ratioP2
14584;SDS011;7379;51.506;11.876;2022-11-12T00:00:10;3.80;;;3.40;;
14584;SDS011;7379;51.506;11.876;2022-11-12T00:02:38;4.57;;;3.58;;
14584;SDS011;7379;51.506;11.876;2022-11-12T00:05:05;4.60;;;3.78;;
14584;SDS011;7379;51.506;11.876;2022-11-12T00:07:32;4.57;;;3.30;;
14584;SDS011;7379;51.506;11.876;2022-11-12T00:09:59;3.97;;;3.35;;
14584;SDS011;7379;51.506;11.876;2022-11-12T00:12:27;4.00;;;3.33;;
14584;SDS011;7379;51.506;11.876;2022-11-12T00:14:54;4.40;;;3.10;;
14584;SDS011;7379;51.506;11.876;2022-11-12T00:17:20;3.20;;;2.90;;
14584;SDS011;7379;51.506;11.876;2022-11-12T00:19:47;4.28;;;3.25;;
14584;SDS011;7379;51.506;11.876;2022-11-12T00:22:14;3.80;;;3.35;;
14584;SDS011;7379;51.506;11.876;2022-11-12T00:24:41;3.78;;;3.17;;
14584;SDS011;7379;51.506;11.876;2022-11-12T00:27:08;4.72;;;3.45;;
14584;SDS011;7379;51.506;11.876;2022-11-12T00:29:36;4.93;;;3.47;;
14584;SDS011;7379;51.506;11.876;2022-11-12T00:32:03;5.25;;;3.45;;
14584;SDS011;7379;51.506;11.876;2022-11-12T00:34:30;3.90;;;3.30;;
14584;SDS011;7379;51.506;11.876;2022-11-12T00:36:57;4.20;;;3.25;;
14584;SDS011;7379;51.506;11.876;2022-11-12T00:39:24;4.47;;;3.50;;
14584;SDS011;7379;51.506;11.876;2022-11-12T00:41:51;4.13;;;3.40;;
14584;SDS011;7379;51.506;11.876;2022-11-12T00:44:18;4.20;;;3.30;;
14584;SDS011;7379;51.506;11.876;2022-11-12T00:46:46;4.38;;;3.33;;
14584;SDS011;7379;51.506;11.876;2022-11-12T00:49:13;3.88;;;3.30;;
14584;SDS011;7379;51.506;11.876;2022-11-12T00:51:40;4.43;;;3.40;;
14584;SDS011;7379;51.506;11.876;2022-11-12T00:54:07;3.47;;;3.00;;
14584;SDS011;7379;51.506;11.876;2022-11-12T00:56:34;4.95;;;3.33;;
14584;SDS011;7379;51.506;11.876;2022-11-12T00:59:01;3.60;;;3.10;;
14584;SDS011;7379;51.506;11.876;2022-11-12T01:01:29;3.73;;;3.30;;
14584;SDS011;7379;51.506;11.876;2022-11-12T01:03:57;3.87;;;3.10;;
14584;SDS011;7379;51.506;11.876;2022-11-12T01:06:24;4.18;;;3.33;;
14584;SDS011;7379;51.506;11.876;2022-11-12T01:08:53;4.53;;;3.47;;
14584;SDS011;7379;51.506;11.876;2022-11-12T01:11:21;3.78;;;2.95;;
14584;SDS011;7379;51.506;11.876;2022-11-12T01:13:52;4.03;;;3.28;;
14584;SDS011;7379;51.506;11.876;2022-11-12T01:16:21;4.10;;;3.30;;
14584;SDS011;7379;51.506;11.876;2022-11-12T01:18:51;4.65;;;3.53;;
14584;SDS011;7379;51.506;11.876;2022-11-12T01:21:20;4.93;;;3.35;;
14584;SDS011;7379;51.506;11.876;2022-11-12T01:23:48;3.70;;;3.05;;
14584;SDS011;7379;51.506;11.876;2022-11-12T01:26:16;4.53;;;3.42;;
14584;SDS011;7379;51.506;11.876;2022-11-12T01:28:44;4.15;;;3.30;;
14584;SDS011;7379;51.506;11.876;2022-11-12T01:31:12;4.05;;;3.42;;
14584;SDS011;7379;51.506;11.876;2022-11-12T01:33:41;3.90;;;3.30;;
14584;SDS011;7379;51.506;11.876;2022-11-12T01:36:09;5.15;;;3.42;;
14584;SDS011;7379;51.506;11.876;2022-11-12T01:38:38;4.97;;;3.40;;
14584;SDS011;7379;51.506;11.876;2022-11-12T01:41:07;5.28;;;3.60;;
14584;SDS011;7379;51.506;11.876;2022-11-12T01:43:35;4.15;;;3.55;;
14584;SDS011;7379;51.506;11.876;2022-11-12T01:46:03;4.25;;;3.45;;
14584;SDS011;7379;51.506;11.876;2022-11-12T01:48:38;4.53;;;3.70;;
14584;SDS011;7379;51.506;11.876;2022-11-12T01:51:11;4.97;;;3.70;;
14584;SDS011;7379;51.506;11.876;2022-11-12T01:53:41;5.23;;;3.80;;
14584;SDS011;7379;51.506;11.876;2022-11-12T01:56:11;3.97;;;3.42;;
14584;SDS011;7379;51.506;11.876;2022-11-12T01:58:39;5.20;;;3.67;;
14584;SDS011;7379;51.506;11.876;2022-11-12T02:01:07;4.05;;;3.58;;
14584;SDS011;7379;51.506;11.876;2022-11-12T02:03:34;4.97;;;3.83;;
14584;SDS011;7379;51.506;11.876;2022-11-12T02:06:02;4.90;;;3.70;;
14584;SDS011;7379;51.506;11.876;2022-11-12T02:08:33;5.07;;;3.80;;
14584;SDS011;7379;51.506;11.876;2022-11-12T02:11:10;5.30;;;3.93;;
14584;SDS011;7379;51.506;11.876;2022-11-12T02:13:39;4.80;;;3.53;;
14584;SDS011;7379;51.506;11.876;2022-11-12T02:16:26;6.10;;;3.97;;
14584;SDS011;7379;51.506;11.876;2022-11-12T02:18:55;6.00;;;3.70;;
14584;SDS011;7379;51.506;11.876;2022-11-12T02:21:24;4.82;;;3.92;;
14584;SDS011;7379;51.506;11.876;2022-11-12T02:24:01;6.23;;;4.07;;
14584;SDS011;7379;51.506;11.876;2022-11-12T02:26:30;5.90;;;4.20;;
14584;SDS011;7379;51.506;11.876;2022-11-12T02:29:00;4.40;;;3.47;;
14584;SDS011;7379;51.506;11.876;2022-11-12T02:31:27;4.50;;;4.00;;
14584;SDS011;7379;51.506;11.876;2022-11-12T02:33:54;4.97;;;3.87;;
14584;SDS011;7379;51.506;11.876;2022-11-12T02:36:21;4.88;;;3.80;;
14584;SDS011;7379;51.506;11.876;2022-11-12T02:38:50;4.40;;;3.90;;
14584;SDS011;7379;51.506;11.876;2022-11-12T02:41:17;5.17;;;3.67;;
14584;SDS011;7379;51.506;11.876;2022-11-12T02:43:44;5.68;;;4.38;;
14584;SDS011;7379;51.506;11.876;2022-11-12T02:46:11;5.43;;;4.27;;
14584;SDS011;7379;51.506;11.876;2022-11-12T02:48:38;4.80;;;4.22;;
14584;SDS011;7379;51.506;11.876;2022-11-12T02:51:05;5.80;;;4.40;;
14584;SDS011;7379;51.506;11.876;2022-11-12T02:53:32;4.63;;;3.93;;
14584;SDS011;7379;51.506;11.876;2022-11-12T02:56:00;5.35;;;4.18;;
14584;SDS011;7379;51.506;11.876;2022-11-12T02:58:27;5.50;;;4.43;;
14584;SDS011;7379;51.506;11.876;2022-11-12T03:00:54;5.22;;;4.32;;
14584;SDS011;7379;51.506;11.876;2022-11-12T03:03:21;6.13;;;4.47;;
14584;SDS011;7379;51.506;11.876;2022-11-12T03:05:53;5.33;;;3.97;;
14584;SDS011;7379;51.506;11.876;2022-11-12T03:08:21;5.10;;;4.27;;
14584;SDS011;7379;51.506;11.876;2022-11-12T03:10:48;4.80;;;4.30;;
14584;SDS011;7379;51.506;11.876;2022-11-12T03:13:16;5.47;;;4.20;;
14584;SDS011;7379;51.506;11.876;2022-11-12T03:15:44;4.97;;;4.25;;
14584;SDS011;7379;51.506;11.876;2022-11-12T03:18:10;5.00;;;4.10;;
14584;SDS011;7379;51.506;11.876;2022-11-12T03:20:37;5.73;;;4.70;;
14584;SDS011;7379;51.506;11.876;2022-11-12T03:23:05;6.57;;;4.73;;
14584;SDS011;7379;51.506;11.876;2022-11-12T03:25:33;5.07;;;4.57;;
14584;SDS011;7379;51.506;11.876;2022-11-12T03:28:01;5.90;;;4.77;;
14584;SDS011;7379;51.506;11.876;2022-11-12T03:30:32;5.87;;;4.60;;
14584;SDS011;7379;51.506;11.876;2022-11-12T03:33:00;4.80;;;4.30;;
14584;SDS011;7379;51.506;11.876;2022-11-12T03:35:27;6.00;;;4.77;;
14584;SDS011;7379;51.506;11.876;2022-11-12T03:37:54;5.00;;;4.30;;
14584;SDS011;7379;51.506;11.876;2022-11-12T03:40:21;5.20;;;4.63;;
14584;SDS011;7379;51.506;11.876;2022-11-12T03:42:48;5.85;;;4.70;;
14584;SDS011;7379;51.506;11.876;2022-11-12T03:45:17;5.28;;;4.75;;
14584;SDS011;7379;51.506;11.876;2022-11-12T03:47:47;6.70;;;4.90;;
14584;SDS011;7379;51.506;11.876;2022-11-12T03:50:15;6.67;;;4.93;;
14584;SDS011;7379;51.506;11.876;2022-11-12T03:52:44;5.97;;;4.73;;
14584;SDS011;7379;51.506;11.876;2022-11-12T03:55:12;5.60;;;4.60;;
14584;SDS011;7379;51.506;11.876;2022-11-12T03:57:39;5.97;;;4.70;;
14584;SDS011;7379;51.506;11.876;2022-11-12T04:00:07;5.40;;;4.83;;
14584;SDS011;7379;51.506;11.876;2022-11-12T04:02:36;5.87;;;4.53;;
14584;SDS011;7379;51.506;11.876;2022-11-12T04:05:05;6.20;;;4.73;;
14584;SDS011;7379;51.506;11.876;2022-11-12T04:07:55;6.77;;;4.43;;
14584;SDS011;7379;51.506;11.876;2022-11-12T04:10:40;6.50;;;4.60;;
14584;SDS011;7379;51.506;11.876;2022-11-12T04:13:07;5.60;;;4.32;;
14584;SDS011;7379;51.506;11.876;2022-11-12T04:15:52;5.97;;;4.53;;
14584;SDS011;7379;51.506;11.876;2022-11-12T04:18:38;5.90;;;4.70;;
14584;SDS011;7379;51.506;11.876;2022-11-12T04:21:24;5.00;;;4.43;;
14584;SDS011;7379;51.506;11.876;2022-11-12T04:24:12;5.67;;;4.50;;
14584;SDS011;7379;51.506;11.876;2022-11-12T04:26:59;4.73;;;4.20;;
14584;SDS011;7379;51.506;11.876;2022-11-12T04:29:24;5.20;;;4.60;;
14584;SDS011;7379;51.506;11.876;2022-11-12T04:32:09;7.03;;;4.80;;
14584;SDS011;7379;51.506;11.876;2022-11-12T04:34:36;6.05;;;4.50;;
14584;SDS011;7379;51.506;11.876;2022-11-12T04:37:04;6.95;;;4.95;;
14584;SDS011;7379;51.506;11.876;2022-11-12T04:39:31;5.00;;;4.50;;
14584;SDS011;7379;51.506;11.876;2022-11-12T04:41:58;5.10;;;4.40;;
14584;SDS011;7379;51.506;11.876;2022-11-12T04:44:43;5.30;;;4.80;;
14584;SDS011;7379;51.506;11.876;2022-11-12T04:47:30;6.30;;;4.63;;
14584;SDS011;7379;51.506;11.876;2022-11-12T04:50:00;7.00;;;4.60;;
14584;SDS011;7379;51.506;11.876;2022-11-12T04:52:29;5.67;;;4.67;;
14584;SDS011;7379;51.506;11.876;2022-11-12T04:54:56;6.87;;;4.40;;
14584;SDS011;7379;51.506;11.876;2022-11-12T04:57:23;4.90;;;4.40;;
14584;SDS011;7379;51.506;11.876;2022-11-12T04:59:50;5.90;;;4.60;;
14584;SDS011;7379;51.506;11.876;2022-11-12T05:02:17;5.77;;;4.70;;
14584;SDS011;7379;51.506;11.876;2022-11-12T05:04:44;5.03;;;4.37;;
14584;SDS011;7379;51.506;11.876;2022-11-12T05:07:11;5.50;;;4.60;;
14584;SDS011;7379;51.506;11.876;2022-11-12T05:09:40;5.28;;;4.70;;
14584;SDS011;7379;51.506;11.876;2022-11-12T05:12:07;6.70;;;4.77;;
14584;SDS011;7379;51.506;11.876;2022-11-12T05:14:34;6.67;;;5.03;;
14584;SDS011;7379;51.506;11.876;2022-11-12T05:17:01;5.83;;;4.67;;
14584;SDS011;7379;51.506;11.876;2022-11-12T05:19:28;5.13;;;4.55;;
14584;SDS011;7379;51.506;11.876;2022-11-12T05:21:55;5.17;;;4.67;;
14584;SDS011;7379;51.506;11.876;2022-11-12T05:24:32;6.40;;;4.50;;
14584;SDS011;7379;51.506;11.876;2022-11-12T05:27:02;5.13;;;4.53;;
14584;SDS011;7379;51.506;11.876;2022-11-12T05:29:30;4.93;;;4.43;;
14584;SDS011;7379;51.506;11.876;2022-11-12T05:31:57;7.70;;;4.97;;
14584;SDS011;7379;51.506;11.876;2022-11-12T05:34:24;6.53;;;4.80;;
14584;SDS011;7379;51.506;11.876;2022-11-12T05:36:51;7.43;;;5.17;;
14584;SDS011;7379;51.506;11.876;2022-11-12T05:39:18;5.23;;;4.67;;
14584;SDS011;7379;51.506;11.876;2022-11-12T05:41:44;5.43;;;4.55;;
14584;SDS011;7379;51.506;11.876;2022-11-12T05:44:13;5.23;;;4.70;;
14584;SDS011;7379;51.506;11.876;2022-11-12T05:46:39;5.57;;;4.93;;
14584;SDS011;7379;51.506;11.876;2022-11-12T05:49:06;5.40;;;4.67;;
14584;SDS011;7379;51.506;11.876;2022-11-12T05:51:33;6.57;;;4.67;;
14584;SDS011;7379;51.506;11.876;2022-11-12T05:54:00;5.40;;;4.60;;
14584;SDS011;7379;51.506;11.876;2022-11-12T05:56:27;6.33;;;5.37;;
14584;SDS011;7379;51.506;11.876;2022-11-12T05:58:54;5.17;;;4.63;;
14584;SDS011;7379;51.506;11.876;2022-11-12T06:01:22;5.23;;;4.70;;
14584;SDS011;7379;51.506;11.876;2022-11-12T06:03:49;5.93;;;5.17;;
14584;SDS011;7379;51.506;11.876;2022-11-12T06:06:15;5.83;;;4.87;;
14584;SDS011;7379;51.506;11.876;2022-11-12T06:08:42;5.53;;;5.03;;
14584;SDS011;7379;51.506;11.876;2022-11-12T06:11:09;5.70;;;4.93;;
14584;SDS011;7379;51.506;11.876;2022-11-12T06:13:36;6.10;;;5.03;;
14584;SDS011;7379;51.506;11.876;2022-11-12T06:16:03;5.72;;;4.97;;
14584;SDS011;7379;51.506;11.876;2022-11-12T06:18:31;5.70;;;4.70;;
14584;SDS011;7379;51.506;11.876;2022-11-12T06:21:01;5.60;;;5.00;;
14584;SDS011;7379;51.506;11.876;2022-11-12T06:23:44;5.73;;;4.80;;
14584;SDS011;7379;51.506;11.876;2022-11-12T06:26:11;6.93;;;4.93;;
14584;SDS011;7379;51.506;11.876;2022-11-12T06:28:38;5.63;;;5.07;;
14584;SDS011;7379;51.506;11.876;2022-11-12T06:31:05;5.50;;;4.63;;
14584;SDS011;7379;51.506;11.876;2022-11-12T06:33:33;5.53;;;4.93;;
14584;SDS011;7379;51.506;11.876;2022-11-12T06:36:01;5.80;;;5.20;;
14584;SDS011;7379;51.506;11.876;2022-11-12T06:38:30;6.00;;;4.70;;
14584;SDS011;7379;51.506;11.876;2022-11-12T06:40:57;5.73;;;4.70;;
14584;SDS011;7379;51.506;11.876;2022-11-12T06:43:24;6.60;;;5.20;;
14584;SDS011;7379;51.506;11.876;2022-11-12T06:45:56;5.80;;;5.20;;
14584;SDS011;7379;51.506;11.876;2022-11-12T06:48:24;6.03;;;4.87;;
14584;SDS011;7379;51.506;11.876;2022-11-12T06:50:52;5.93;;;4.50;;
14584;SDS011;7379;51.506;11.876;2022-11-12T06:53:19;5.33;;;4.40;;
14584;SDS011;7379;51.506;11.876;2022-11-12T06:55:46;7.13;;;4.57;;
14584;SDS011;7379;51.506;11.876;2022-11-12T06:58:12;5.70;;;4.80;;
14584;SDS011;7379;51.506;11.876;2022-11-12T07:00:39;6.03;;;4.70;;
14584;SDS011;7379;51.506;11.876;2022-11-12T07:03:06;5.87;;;4.70;;
14584;SDS011;7379;51.506;11.876;2022-11-12T07:05:34;6.13;;;4.40;;
14584;SDS011;7379;51.506;11.876;2022-11-12T07:08:03;5.37;;;4.40;;
14584;SDS011;7379;51.506;11.876;2022-11-12T07:10:31;4.73;;;4.20;;
14584;SDS011;7379;51.506;11.876;2022-11-12T07:12:58;4.97;;;4.47;;
14584;SDS011;7379;51.506;11.876;2022-11-12T07:15:25;6.13;;;4.30;;
14584;SDS011;7379;51.506;11.876;2022-11-12T07:17:51;6.20;;;4.37;;
14584;SDS011;7379;51.506;11.876;2022-11-12T07:20:18;4.77;;;3.90;;
14584;SDS011;7379;51.506;11.876;2022-11-12T07:22:45;5.40;;;4.17;;
14584;SDS011;7379;51.506;11.876;2022-11-12T07:25:13;5.10;;;4.13;;
14584;SDS011;7379;51.506;11.876;2022-11-12T07:27:40;4.90;;;3.90;;
14584;SDS011;7379;51.506;11.876;2022-11-12T07:30:07;5.53;;;4.47;;
14584;SDS011;7379;51.506;11.876;2022-11-12T07:32:34;5.23;;;4.23;;
14584;SDS011;7379;51.506;11.876;2022-11-12T07:35:01;4.50;;;4.07;;
14584;SDS011;7379;51.506;11.876;2022-11-12T07:37:28;5.37;;;4.00;;
14584;SDS011;7379;51.506;11.876;2022-11-12T07:39:55;4.97;;;4.27;;
14584;SDS011;7379;51.506;11.876;2022-11-12T07:42:23;5.20;;;4.30;;
14584;SDS011;7379;51.506;11.876;2022-11-12T07:44:50;5.80;;;4.20;;
14584;SDS011;7379;51.506;11.876;2022-11-12T07:47:17;6.10;;;4.90;;
14584;SDS011;7379;51.506;11.876;2022-11-12T07:49:43;5.90;;;4.40;;
14584;SDS011;7379;51.506;11.876;2022-11-12T07:52:10;5.77;;;4.27;;
14584;SDS011;7379;51.506;11.876;2022-11-12T07:54:37;5.10;;;4.57;;
14584;SDS011;7379;51.506;11.876;2022-11-12T07:57:04;6.10;;;5.10;;
14584;SDS011;7379;51.506;11.876;2022-11-12T07:59:32;5.70;;;4.43;;
14584;SDS011;7379;51.506;11.876;2022-11-12T08:01:58;6.70;;;5.00;;
14584;SDS011;7379;51.506;11.876;2022-11-12T08:04:25;5.43;;;4.17;;
14584;SDS011;7379;51.506;11.876;2022-11-12T08:06:52;5.40;;;4.70;;
14584;SDS011;7379;51.506;11.876;2022-11-12T08:09:19;7.53;;;4.77;;
14584;SDS011;7379;51.506;11.876;2022-11-12T08:11:45;6.03;;;4.90;;
14584;SDS011;7379;51.506;11.876;2022-11-12T08:14:12;5.77;;;4.70;;
14584;SDS011;7379;51.506;11.876;2022-11-12T08:16:40;5.40;;;4.90;;
14584;SDS011;7379;51.506;11.876;2022-11-12T08:19:07;6.70;;;4.93;;
14584;SDS011;7379;51.506;11.876;2022-11-12T08:21:34;5.67;;;5.03;;
14584;SDS011;7379;51.506;11.876;2022-11-12T08:24:01;6.33;;;5.07;;
14584;SDS011;7379;51.506;11.876;2022-11-12T08:26:28;6.90;;;5.50;;
14584;SDS011;7379;51.506;11.876;2022-11-12T08:28:54;5.57;;;4.90;;
14584;SDS011;7379;51.506;11.876;2022-11-12T08:31:21;7.50;;;6.80;;
14584;SDS011;7379;51.506;11.876;2022-11-12T08:33:50;6.43;;;5.47;;
14584;SDS011;7379;51.506;11.876;2022-11-12T08:36:17;7.30;;;5.27;;
14584;SDS011;7379;51.506;11.876;2022-11-12T08:38:44;7.07;;;5.10;;
14584;SDS011;7379;51.506;11.876;2022-11-12T08:41:12;5.63;;;5.03;;
14584;SDS011;7379;51.506;11.876;2022-11-12T08:43:40;6.93;;;5.43;;
14584;SDS011;7379;51.506;11.876;2022-11-12T08:46:07;6.50;;;5.33;;
14584;SDS011;7379;51.506;11.876;2022-11-12T08:48:34;7.03;;;5.23;;
14584;SDS011;7379;51.506;11.876;2022-11-12T08:51:03;5.97;;;5.30;;
14584;SDS011;7379;51.506;11.876;2022-11-12T08:53:30;7.13;;;5.70;;
14584;SDS011;7379;51.506;11.876;2022-11-12T08:55:57;5.90;;;5.17;;
14584;SDS011;7379;51.506;11.876;2022-11-12T08:58:25;6.47;;;5.63;;
14584;SDS011;7379;51.506;11.876;2022-11-12T09:00:52;6.07;;;5.47;;
14584;SDS011;7379;51.506;11.876;2022-11-12T09:03:20;5.90;;;5.30;;
14584;SDS011;7379;51.506;11.876;2022-11-12T09:05:48;7.17;;;5.60;;
14584;SDS011;7379;51.506;11.876;2022-11-12T09:08:18;5.93;;;5.33;;
14584;SDS011;7379;51.506;11.876;2022-11-12T09:10:47;7.73;;;5.63;;
14584;SDS011;7379;51.506;11.876;2022-11-12T09:13:14;6.70;;;5.67;;
14584;SDS011;7379;51.506;11.876;2022-11-12T09:15:41;7.10;;;5.90;;
14584;SDS011;7379;51.506;11.876;2022-11-12T09:18:10;6.50;;;5.80;;
14584;SDS011;7379;51.506;11.876;2022-11-12T09:20:38;8.63;;;5.30;;
14584;SDS011;7379;51.506;11.876;2022-11-12T09:23:06;6.13;;;5.30;;
14584;SDS011;7379;51.506;11.876;2022-11-12T09:25:36;7.93;;;5.73;;
14584;SDS011;7379;51.506;11.876;2022-11-12T09:28:07;7.73;;;5.50;;
14584;SDS011;7379;51.506;11.876;2022-11-12T09:30:35;7.30;;;5.50;;
14584;SDS011;7379;51.506;11.876;2022-11-12T09:33:02;7.10;;;5.80;;
14584;SDS011;7379;51.506;11.876;2022-11-12T09:35:30;8.10;;;5.80;;
14584;SDS011;7379;51.506;11.876;2022-11-12T09:37:57;9.57;;;5.90;;
14584;SDS011;7379;51.506;11.876;2022-11-12T09:40:27;7.17;;;5.47;;
14584;SDS011;7379;51.506;11.876;2022-11-12T09:43:08;6.67;;;5.87;;
14584;SDS011;7379;51.506;11.876;2022-11-12T09:45:42;8.30;;;5.87;;
14584;SDS011;7379;51.506;11.876;2022-11-12T09:48:11;8.47;;;5.50;;
14584;SDS011;7379;51.506;11.876;2022-11-12T09:50:45;7.10;;;6.00;;
14584;SDS011;7379;51.506;11.876;2022-11-12T09:53:21;7.17;;;5.87;;
14584;SDS011;7379;51.506;11.876;2022-11-12T09:55:55;7.70;;;6.00;;
14584;SDS011;7379;51.506;11.876;2022-11-12T09:58:22;6.90;;;5.70;;
14584;SDS011;7379;51.506;11.876;2022-11-12T10:00:52;7.53;;;5.80;;
14584;SDS011;7379;51.506;11.876;2022-11-12T10:03:23;6.30;;;5.50;;
14584;SDS011;7379;51.506;11.876;2022-11-12T10:05:57;6.73;;;5.73;;
14584;SDS011;7379;51.506;11.876;2022-11-12T10:08:28;6.83;;;5.67;;
14584;SDS011;7379;51.506;11.876;2022-11-12T10:11:06;5.83;;;5.20;;
14584;SDS011;7379;51.506;11.876;2022-11-12T10:13:45;7.40;;;5.67;;
14584;SDS011;7379;51.506;11.876;2022-11-12T10:16:37;7.30;;;5.73;;
14584;SDS011;7379;51.506;11.876;2022-11-12T10:19:25;6.87;;;5.80;;
14584;SDS011;7379;51.506;11.876;2022-11-12T10:22:12;7.30;;;5.73;;
14584;SDS011;7379;51.506;11.876;2022-11-12T10:24:47;6.10;;;5.03;;
14584;SDS011;7379;51.506;11.876;2022-11-12T10:27:17;7.73;;;5.80;;
14584;SDS011;7379;51.506;11.876;2022-11-12T10:29:46;6.27;;;5.43;;
14584;SDS011;7379;51.506;11.876;2022-11-12T10:32:17;6.20;;;5.50;;
14584;SDS011;7379;51.506;11.876;2022-11-12T10:34:44;6.70;;;5.20;;
14584;SDS011;7379;51.506;11.876;2022-11-12T10:37:12;7.60;;;5.33;;
14584;SDS011;7379;51.506;11.876;2022-11-12T10:39:43;7.10;;;5.27;;
14584;SDS011;7379;51.506;11.876;2022-11-12T10:42:12;5.90;;;5.13;;
14584;SDS011;7379;51.506;11.876;2022-11-12T10:44:41;5.90;;;5.30;;
14584;SDS011;7379;51.506;11.876;2022-11-12T10:47:15;6.10;;;5.27;;
14584;SDS011;7379;51.506;11.876;2022-11-12T10:49:57;6.00;;;5.20;;
14584;SDS011;7379;51.506;11.876;2022-11-12T10:52:27;6.77;;;5.17;;
14584;SDS011;7379;51.506;11.876;2022-11-12T10:55:02;5.90;;;5.20;;
14584;SDS011;7379;51.506;11.876;2022-11-12T10:57:30;7.67;;;5.63;;
14584;SDS011;7379;51.506;11.876;2022-11-12T11:00:13;6.70;;;5.20;;
14584;SDS011;7379;51.506;11.876;2022-11-12T11:02:45;5.73;;;4.80;;
14584;SDS011;7379;51.506;11.876;2022-11-12T11:05:31;6.30;;;5.10;;
14584;SDS011;7379;51.506;11.876;2022-11-12T11:08:00;7.20;;;5.57;;
14584;SDS011;7379;51.506;11.876;2022-11-12T11:10:29;5.80;;;5.03;;
14584;SDS011;7379;51.506;11.876;2022-11-12T11:13:15;6.03;;;5.20;;
14584;SDS011;7379;51.506;11.876;2022-11-12T11:18:29;5.83;;;5.10;;
14584;SDS011;7379;51.506;11.876;2022-11-12T11:21:06;6.23;;;5.03;;
14584;SDS011;7379;51.506;11.876;2022-11-12T11:23:44;7.33;;;5.30;;
14584;SDS011;7379;51.506;11.876;2022-11-12T11:26:20;5.50;;;5.00;;
14584;SDS011;7379;51.506;11.876;2022-11-12T11:28:59;6.53;;;5.27;;
14584;SDS011;7379;51.506;11.876;2022-11-12T11:31:38;8.90;;;5.97;;
14584;SDS011;7379;51.506;11.876;2022-11-12T11:34:12;6.27;;;5.03;;
14584;SDS011;7379;51.506;11.876;2022-11-12T11:36:50;6.80;;;5.53;;
14584;SDS011;7379;51.506;11.876;2022-11-12T11:39:28;7.20;;;5.17;;
14584;SDS011;7379;51.506;11.876;2022-11-12T11:42:06;5.70;;;5.10;;
14584;SDS011;7379;51.506;11.876;2022-11-12T11:44:48;6.23;;;5.10;;
14584;SDS011;7379;51.506;11.876;2022-11-12T11:47:28;8.00;;;5.20;;
14584;SDS011;7379;51.506;11.876;2022-11-12T11:50:10;6.33;;;5.23;;
14584;SDS011;7379;51.506;11.876;2022-11-12T11:52:46;5.70;;;5.10;;
14584;SDS011;7379;51.506;11.876;2022-11-12T11:55:23;7.00;;;5.47;;
14584;SDS011;7379;51.506;11.876;2022-11-12T11:58:01;6.47;;;5.80;;
14584;SDS011;7379;51.506;11.876;2022-11-12T12:00:59;6.83;;;5.37;;
14584;SDS011;7379;51.506;11.876;2022-11-12T12:03:40;6.80;;;5.03;;
14584;SDS011;7379;51.506;11.876;2022-11-12T12:06:17;8.37;;;5.87;;
14584;SDS011;7379;51.506;11.876;2022-11-12T12:08:56;7.43;;;5.43;;
14584;SDS011;7379;51.506;11.876;2022-11-12T12:11:33;5.80;;;5.13;;
14584;SDS011;7379;51.506;11.876;2022-11-12T12:14:10;6.57;;;5.07;;
14584;SDS011;7379;51.506;11.876;2022-11-12T12:16:51;6.93;;;5.33;;
14584;SDS011;7379;51.506;11.876;2022-11-12T12:19:31;6.30;;;5.20;;
14584;SDS011;7379;51.506;11.876;2022-11-12T12:22:10;7.07;;;5.50;;
14584;SDS011;7379;51.506;11.876;2022-11-12T12:24:42;8.57;;;4.77;;
14584;SDS011;7379;51.506;11.876;2022-11-12T12:27:15;6.90;;;5.33;;
14584;SDS011;7379;51.506;11.876;2022-11-12T12:29:46;7.00;;;5.20;;
14584;SDS011;7379;51.506;11.876;2022-11-12T12:32:16;6.47;;;5.40;;
14584;SDS011;7379;51.506;11.876;2022-11-12T12:34:49;5.97;;;5.03;;
14584;SDS011;7379;51.506;11.876;2022-11-12T12:37:23;5.70;;;4.93;;
14584;SDS011;7379;51.506;11.876;2022-11-12T12:39:58;5.57;;;4.70;;
14584;SDS011;7379;51.506;11.876;2022-11-12T12:42:30;5.97;;;4.90;;
14584;SDS011;7379;51.506;11.876;2022-11-12T12:45:16;6.53;;;5.10;;
14584;SDS011;7379;51.506;11.876;2022-11-12T12:48:01;6.13;;;5.13;;
14584;SDS011;7379;51.506;11.876;2022-11-12T12:50:32;5.10;;;4.60;;
14584;SDS011;7379;51.506;11.876;2022-11-12T12:53:01;5.80;;;4.73;;
14584;SDS011;7379;51.506;11.876;2022-11-12T12:55:34;5.73;;;4.70;;
14584;SDS011;7379;51.506;11.876;2022-11-12T12:58:05;5.77;;;4.90;;
14584;SDS011;7379;51.506;11.876;2022-11-12T13:00:45;5.37;;;4.70;;
14584;SDS011;7379;51.506;11.876;2022-11-12T13:03:23;6.97;;;5.07;;
14584;SDS011;7379;51.506;11.876;2022-11-12T13:06:15;5.53;;;4.77;;
14584;SDS011;7379;51.506;11.876;2022-11-12T13:08:48;6.03;;;5.00;;
14584;SDS011;7379;51.506;11.876;2022-11-12T13:17:49;5.30;;;4.80;;
14584;SDS011;7379;51.506;11.876;2022-11-12T13:22:55;5.13;;;4.63;;
14584;SDS011;7379;51.506;11.876;2022-11-12T13:25:23;5.00;;;4.50;;
14584;SDS011;7379;51.506;11.876;2022-11-12T13:28:04;5.20;;;4.57;;
14584;SDS011;7379;51.506;11.876;2022-11-12T13:33:34;5.37;;;4.80;;
14584;SDS011;7379;51.506;11.876;2022-11-12T13:38:54;5.43;;;4.80;;
14584;SDS011;7379;51.506;11.876;2022-11-12T13:41:35;5.50;;;4.60;;
14584;SDS011;7379;51.506;11.876;2022-11-12T13:44:16;5.50;;;4.90;;
14584;SDS011;7379;51.506;11.876;2022-11-12T13:46:42;5.30;;;4.80;;
14584;SDS011;7379;51.506;11.876;2022-11-12T13:49:10;5.80;;;4.63;;
14584;SDS011;7379;51.506;11.876;2022-11-12T13:51:39;5.30;;;4.80;;
14584;SDS011;7379;51.506;11.876;2022-11-12T13:54:27;5.87;;;4.63;;
14584;SDS011;7379;51.506;11.876;2022-11-12T13:57:11;5.45;;;4.85;;
14584;SDS011;7379;51.506;11.876;2022-11-12T13:59:39;6.30;;;4.80;;
14584;SDS011;7379;51.506;11.876;2022-11-12T14:02:13;5.57;;;5.03;;
14584;SDS011;7379;51.506;11.876;2022-11-12T14:04:45;5.53;;;4.85;;
14584;SDS011;7379;51.506;11.876;2022-11-12T14:07:16;6.07;;;5.10;;
14584;SDS011;7379;51.506;11.876;2022-11-12T14:10:01;6.87;;;5.30;;
14584;SDS011;7379;51.506;11.876;2022-11-12T14:15:46;7.03;;;5.40;;
14584;SDS011;7379;51.506;11.876;2022-11-12T14:18:23;8.20;;;5.80;;
14584;SDS011;7379;51.506;11.876;2022-11-12T14:21:02;6.15;;;5.18;;
14584;SDS011;7379;51.506;11.876;2022-11-12T14:23:30;6.60;;;5.10;;
14584;SDS011;7379;51.506;11.876;2022-11-12T14:25:59;7.43;;;5.47;;
14584;SDS011;7379;51.506;11.876;2022-11-12T14:28:26;6.32;;;5.60;;
14584;SDS011;7379;51.506;11.876;2022-11-12T14:30:54;6.27;;;5.63;;
14584;SDS011;7379;51.506;11.876;2022-11-12T14:33:22;6.33;;;5.67;;
14584;SDS011;7379;51.506;11.876;2022-11-12T14:35:50;6.67;;;5.53;;
14584;SDS011;7379;51.506;11.876;2022-11-12T14:38:29;6.47;;;5.37;;
14584;SDS011;7379;51.506;11.876;2022-11-12T14:41:01;7.27;;;5.37;;
14584;SDS011;7379;51.506;11.876;2022-11-12T14:43:33;7.63;;;5.73;;
14584;SDS011;7379;51.506;11.876;2022-11-12T14:46:03;6.87;;;5.50;;
14584;SDS011;7379;51.506;11.876;2022-11-12T14:48:32;6.22;;;5.35;;
14584;SDS011;7379;51.506;11.876;2022-11-12T14:51:08;7.93;;;5.30;;
14584;SDS011;7379;51.506;11.876;2022-11-12T14:53:39;7.87;;;5.50;;
14584;SDS011;7379;51.506;11.876;2022-11-12T14:56:11;6.22;;;5.20;;
14584;SDS011;7379;51.506;11.876;2022-11-12T14:58:41;6.17;;;5.33;;
14584;SDS011;7379;51.506;11.876;2022-11-12T15:01:22;6.93;;;5.37;;
14584;SDS011;7379;51.506;11.876;2022-11-12T15:03:50;6.27;;;5.63;;
14584;SDS011;7379;51.506;11.876;2022-11-12T15:06:28;6.20;;;5.60;;
14584;SDS011;7379;51.506;11.876;2022-11-12T15:08:58;6.17;;;5.50;;
14584;SDS011;7379;51.506;11.876;2022-11-12T15:11:25;8.93;;;5.77;;
14584;SDS011;7379;51.506;11.876;2022-11-12T15:13:55;9.50;;;6.33;;
14584;SDS011;7379;51.506;11.876;2022-11-12T15:16:28;6.80;;;5.83;;
14584;SDS011;7379;51.506;11.876;2022-11-12T15:19:16;6.87;;;5.83;;
14584;SDS011;7379;51.506;11.876;2022-11-12T15:21:46;7.27;;;5.73;;
14584;SDS011;7379;51.506;11.876;2022-11-12T15:24:16;6.50;;;5.70;;
14584;SDS011;7379;51.506;11.876;2022-11-12T15:26:51;6.83;;;6.13;;
14584;SDS011;7379;51.506;11.876;2022-11-12T15:29:25;7.27;;;6.17;;